Time;durP1;ratioP1;P1;durP2;ratioP2;P2;SDS_P1;SDS_P2;PMS_P1;PMS_P2;Temp;Humidity;BMP_temperature;BMP_pressure;BME280_temperature;BME280_humidity;BME280_pressure;Samples;Min_cycle;Max_cycle;Signal;HPM_P1;HPM_P2
2023/01/03 00:01:30;;;;;;;9.88;2.90;;;4.10;99.90;;;;;;5037253;28;20133;-72
2023/01/03 00:03:57;;;;;;;11.57;3.22;;;4.10;99.90;;;;;;5054584;28;20106;-72
2023/01/03 00:06:27;;;;;;;8.55;2.88;;;4.50;99.90;;;;;;5049831;28;20497;-72
2023/01/03 00:08:54;;;;;;;12.27;3.90;;;4.10;99.90;;;;;;5058049;28;20036;-73
2023/01/03 00:14:12;;;;;;;12.45;2.88;;;4.10;99.90;;;;;;5052621;28;20044;-72
2023/01/03 00:16:39;;;;;;;6.45;2.58;;;4.00;99.90;;;;;;5054445;28;20067;-72
2023/01/03 00:19:14;;;;;;;8.27;2.60;;;4.00;99.90;;;;;;5039549;28;20629;-73
2023/01/03 00:21:41;;;;;;;7.15;3.20;;;4.10;99.90;;;;;;5052566;28;20083;-74
2023/01/03 00:24:08;;;;;;;6.95;3.00;;;4.00;99.90;;;;;;5071653;28;20316;-72
2023/01/03 00:26:34;;;;;;;8.07;2.70;;;4.10;99.90;;;;;;5071080;28;20044;-73
2023/01/03 00:29:01;;;;;;;10.10;2.75;;;4.00;99.90;;;;;;5050581;28;20048;-72
2023/01/03 00:31:26;;;;;;;9.57;2.85;;;4.10;99.90;;;;;;5056681;28;20567;-73
2023/01/03 00:33:52;;;;;;;10.55;3.00;;;4.00;99.90;;;;;;5052106;28;20053;-73
2023/01/03 00:36:18;;;;;;;8.05;2.63;;;4.00;99.90;;;;;;5057526;28;20048;-73
2023/01/03 00:38:44;;;;;;;7.43;2.63;;;4.00;99.90;;;;;;5041345;28;20408;-72
2023/01/03 00:41:12;;;;;;;6.95;2.90;;;4.00;99.90;;;;;;5054087;28;20044;-72
2023/01/03 00:43:41;;;;;;;12.43;3.20;;;4.00;99.90;;;;;;5060056;28;20036;-72
2023/01/03 00:46:08;;;;;;;7.60;3.55;;;4.00;99.90;;;;;;5056477;28;20559;-72
2023/01/03 00:48:34;;;;;;;10.75;3.33;;;4.00;99.90;;;;;;5052124;28;20501;-72
2023/01/03 00:51:08;;;;;;;8.88;2.75;;;4.00;99.90;;;;;;5061195;28;20051;-74
2023/01/03 00:53:36;;;;;;;8.82;3.00;;;4.00;99.90;;;;;;5061675;28;20040;-73
2023/01/03 00:56:04;;;;;;;6.85;2.85;;;4.00;99.90;;;;;;5051304;28;20130;-72
2023/01/03 00:58:30;;;;;;;8.20;2.50;;;4.00;99.90;;;;;;5057054;28;20669;-72
2023/01/03 01:00:56;;;;;;;7.25;2.80;;;4.00;99.90;;;;;;5050659;28;20155;-73
2023/01/03 01:03:22;;;;;;;8.00;3.17;;;4.10;99.90;;;;;;5058006;28;20633;-72
2023/01/03 01:05:48;;;;;;;11.15;3.00;;;5.10;99.90;;;;;;5072464;28;20436;-72
2023/01/03 01:08:13;;;;;;;7.60;2.70;;;4.10;99.90;;;;;;5053708;28;20045;-72
2023/01/03 01:11:00;;;;;;;7.75;2.75;;;4.00;99.90;;;;;;5070458;28;20051;-72
2023/01/03 01:13:33;;;;;;;9.20;3.03;;;4.00;99.90;;;;;;5024292;28;20541;-72
2023/01/03 01:16:17;;;;;;;7.55;2.60;;;4.00;99.90;;;;;;5014884;28;20430;-73
2023/01/03 01:18:44;;;;;;;12.80;2.50;;;4.00;99.90;;;;;;5027009;28;20045;-73
2023/01/03 01:21:17;;;;;;;12.27;2.33;;;4.00;99.90;;;;;;5048619;28;20059;-72
2023/01/03 01:23:43;;;;;;;8.00;2.30;;;4.00;99.90;;;;;;5051164;28;20051;-71
2023/01/03 01:26:15;;;;;;;7.28;2.30;;;4.00;99.90;;;;;;5047664;28;20398;-72
2023/01/03 01:28:41;;;;;;;11.05;2.30;;;4.00;99.90;;;;;;5020015;28;20032;-71
2023/01/03 01:31:08;;;;;;;7.20;2.25;;;4.00;99.90;;;;;;5044915;28;20523;-74
2023/01/03 01:33:35;;;;;;;9.68;2.45;;;4.00;99.90;;;;;;5048182;28;20132;-73
2023/01/03 01:36:11;;;;;;;13.07;2.50;;;4.00;99.90;;;;;;5048125;28;20476;-74
2023/01/03 01:38:36;;;;;;;8.85;2.25;;;4.10;99.90;;;;;;5034587;28;20052;-72
2023/01/03 01:41:03;;;;;;;7.50;2.22;;;4.00;99.90;;;;;;5030896;28;20036;-71
2023/01/03 01:46:19;;;;;;;14.27;2.78;;;4.10;99.90;;;;;;5042322;28;20051;-73
2023/01/03 01:48:46;;;;;;;6.28;2.20;;;4.00;99.90;;;;;;5051820;28;20041;-73
2023/01/03 01:51:12;;;;;;;6.32;2.25;;;4.10;99.90;;;;;;5034615;28;20076;-72
2023/01/03 01:53:40;;;;;;;9.23;2.30;;;4.40;99.90;;;;;;5045753;28;20040;-72
2023/01/03 01:56:24;;;;;;;10.18;2.83;;;4.30;99.90;;;;;;5036245;28;20736;-72
2023/01/03 01:58:51;;;;;;;9.43;2.47;;;4.10;99.90;;;;;;5036820;28;20049;-72
2023/01/03 02:01:22;;;;;;;7.97;2.70;;;4.10;99.90;;;;;;5030928;28;20146;-73
2023/01/03 02:04:00;;;;;;;11.50;3.17;;;4.10;99.90;;;;;;5055584;28;20036;-72
2023/01/03 02:06:27;;;;;;;6.90;2.47;;;4.10;99.90;;;;;;5036557;28;20124;-72
2023/01/03 02:08:53;;;;;;;11.25;3.33;;;4.10;99.90;;;;;;5030990;28;20101;-72
2023/01/03 02:11:38;;;;;;;10.57;2.97;;;4.10;99.90;;;;;;5039411;28;20053;-72
2023/01/03 02:14:24;;;;;;;10.38;3.08;;;4.10;99.90;;;;;;5036566;28;20045;-72
2023/01/03 02:16:53;;;;;;;10.23;2.45;;;4.10;99.90;;;;;;5052081;28;20106;-72
2023/01/03 02:19:47;;;;;;;9.95;2.95;;;4.10;99.90;;;;;;5032555;28;20048;-72
2023/01/03 02:22:30;;;;;;;9.52;2.75;;;4.10;99.90;;;;;;5047536;28;20804;-72
2023/01/03 02:25:08;;;;;;;15.63;3.10;;;4.10;99.90;;;;;;5036685;28;20129;-73
2023/01/03 02:27:45;;;;;;;10.85;2.80;;;4.10;99.90;;;;;;5018550;28;20123;-72
2023/01/03 02:30:29;;;;;;;10.85;3.05;;;4.10;99.90;;;;;;5042718;28;20055;-72
2023/01/03 02:33:14;;;;;;;10.88;3.03;;;4.10;99.90;;;;;;5049821;28;20128;-73
2023/01/03 02:36:07;;;;;;;9.40;3.10;;;4.10;99.90;;;;;;5029006;28;20049;-72
2023/01/03 02:38:57;;;;;;;10.32;3.05;;;4.10;99.90;;;;;;5056519;28;20245;-73
2023/01/03 02:41:39;;;;;;;9.15;2.67;;;4.10;99.90;;;;;;5033399;28;20041;-74
2023/01/03 02:44:13;;;;;;;12.82;3.65;;;4.10;99.90;;;;;;5020026;28;20094;-72
2023/01/03 02:46:48;;;;;;;7.25;2.78;;;4.10;99.90;;;;;;5054444;28;20048;-73
2023/01/03 02:49:29;;;;;;;12.10;3.08;;;4.10;99.90;;;;;;5049796;28;20421;-74
2023/01/03 02:51:59;;;;;;;9.90;2.70;;;4.10;99.90;;;;;;5032577;28;20048;-72
2023/01/03 02:54:41;;;;;;;10.45;2.70;;;4.00;99.90;;;;;;5034544;28;20057;-72
2023/01/03 02:57:11;;;;;;;12.80;3.00;;;4.00;99.90;;;;;;5040845;28;20051;-72
2023/01/03 02:59:44;;;;;;;12.07;2.63;;;4.00;99.90;;;;;;5061779;28;20159;-72
2023/01/03 03:02:11;;;;;;;10.55;2.33;;;4.00;99.90;;;;;;5055010;28;20044;-72
2023/01/03 03:04:38;;;;;;;10.98;2.40;;;3.90;99.90;;;;;;5055154;28;20055;-73
2023/01/03 03:07:12;;;;;;;8.48;2.10;;;4.00;99.90;;;;;;5056977;28;20044;-72
2023/01/03 03:13:12;;;;;;;8.40;2.20;;;3.90;99.90;;;;;;5052228;28;20032;-73
2023/01/03 03:15:14;;;;;;;7.03;2.17;;;3.80;99.90;;;;;;5054003;28;20044;-73
2023/01/03 03:17:43;;;;;;;10.88;2.28;;;3.80;99.90;;;;;;5071183;28;20032;-72
2023/01/03 03:26:03;;;;;;;8.73;2.45;;;3.80;99.90;;;;;;5073482;28;20071;-71
2023/01/03 03:28:35;;;;;;;9.80;2.65;;;3.80;99.90;;;;;;5073462;28;20085;-74
2023/01/03 03:31:18;;;;;;;10.98;2.80;;;3.60;99.90;;;;;;5054945;28;20040;-71
2023/01/03 03:33:55;;;;;;;12.05;2.50;;;3.60;99.90;;;;;;5058184;28;20050;-72
2023/01/03 03:36:52;;;;;;;9.52;2.83;;;3.50;99.90;;;;;;5068402;28;20665;-72
2023/01/03 03:45:44;;;;;;;11.93;2.50;;;3.50;99.90;;;;;;5067378;28;20044;-74
2023/01/03 03:49:36;;;;;;;10.50;2.42;;;3.40;99.90;;;;;;5052190;28;20071;-73
2023/01/03 03:51:21;;;;;;;9.65;2.67;;;3.40;99.90;;;;;;5067162;28;20063;-73
2023/01/03 03:53:48;;;;;;;9.60;2.50;;;3.30;99.90;;;;;;5071540;28;20045;-72
2023/01/03 03:56:17;;;;;;;13.50;2.72;;;3.30;99.90;;;;;;5074217;28;20519;-73
2023/01/03 03:58:46;;;;;;;11.23;2.95;;;3.30;99.90;;;;;;5075959;28;20040;-72
2023/01/03 04:01:15;;;;;;;7.68;3.10;;;3.30;99.90;;;;;;5069145;28;21508;-74
2023/01/03 04:03:43;;;;;;;9.07;2.80;;;3.40;99.90;;;;;;5051083;28;20086;-73
2023/01/03 04:06:16;;;;;;;8.15;2.60;;;3.20;99.90;;;;;;5078649;28;20050;-73
2023/01/03 04:08:41;;;;;;;16.25;4.32;;;3.20;99.90;;;;;;5075694;28;20554;-74
2023/01/03 04:11:07;;;;;;;10.88;3.20;;;3.10;99.90;;;;;;5053947;28;20055;-73
2023/01/03 04:13:36;;;;;;;7.10;2.50;;;3.20;99.90;;;;;;5074265;28;20044;-74
2023/01/03 04:16:02;;;;;;;7.05;2.88;;;3.10;99.90;;;;;;5069920;28;20039;-74
2023/01/03 04:18:28;;;;;;;9.07;3.05;;;3.10;99.90;;;;;;5066911;28;20056;-74
2023/01/03 04:20:53;;;;;;;9.15;3.35;;;3.80;99.90;;;;;;5065390;28;20040;-73
2023/01/03 04:23:22;;;;;;;10.98;3.15;;;3.00;99.90;;;;;;5071194;28;20074;-73
2023/01/03 04:25:48;;;;;;;9.68;3.67;;;3.00;99.90;;;;;;5075620;28;20055;-74
2023/01/03 04:28:14;;;;;;;10.98;3.20;;;3.00;99.90;;;;;;5073126;28;20404;-74
2023/01/03 04:30:40;;;;;;;10.77;3.33;;;3.80;99.90;;;;;;5054491;28;21325;-73
2023/01/03 04:33:06;;;;;;;9.95;4.07;;;2.90;99.90;;;;;;5056593;28;20048;-73
2023/01/03 04:35:32;;;;;;;13.18;3.78;;;2.90;99.90;;;;;;5069563;28;20043;-72
2023/01/03 04:37:58;;;;;;;13.52;4.28;;;2.90;99.90;;;;;;5075786;28;20364;-73
2023/01/03 04:40:23;;;;;;;12.93;3.92;;;2.90;99.90;;;;;;5055235;28;20054;-73
2023/01/03 04:45:34;;;;;;;12.00;4.15;;;2.90;99.90;;;;;;5080730;28;20046;-73
2023/01/03 04:48:00;;;;;;;11.10;4.68;;;3.10;99.90;;;;;;5072645;28;20127;-74
2023/01/03 04:50:26;;;;;;;11.90;4.95;;;2.90;99.90;;;;;;5076659;28;20051;-74
2023/01/03 04:52:51;;;;;;;16.15;5.35;;;2.90;99.90;;;;;;5054583;28;20079;-74
2023/01/03 04:55:17;;;;;;;14.38;5.50;;;2.90;99.90;;;;;;5082895;28;20043;-73
2023/01/03 04:57:43;;;;;;;13.45;5.45;;;2.90;99.90;;;;;;5070999;28;20040;-74
2023/01/03 05:00:09;;;;;;;12.45;5.85;;;2.90;99.90;;;;;;5054441;28;20040;-74
2023/01/03 05:02:35;;;;;;;15.57;5.85;;;2.90;99.90;;;;;;5072612;28;20052;-74
2023/01/03 05:05:00;;;;;;;15.52;6.30;;;2.90;99.90;;;;;;5056437;28;20032;-73
2023/01/03 05:07:27;;;;;;;17.80;7.45;;;2.90;99.90;;;;;;5077606;28;20135;-73
2023/01/03 05:09:53;;;;;;;12.98;6.60;;;3.20;99.90;;;;;;5068934;28;20040;-73
2023/01/03 05:12:19;;;;;;;17.40;7.28;;;2.90;99.90;;;;;;5081188;28;20124;-73
2023/01/03 05:14:45;;;;;;;19.58;8.32;;;2.90;99.90;;;;;;5076424;28;20048;-73
2023/01/03 05:17:10;;;;;;;15.90;7.68;;;2.90;99.90;;;;;;5054056;28;20327;-73
2023/01/03 05:25:48;;;;;;;16.90;7.85;;;2.90;99.90;;;;;;5065365;28;20076;-73
2023/01/03 05:27:53;;;;;;;21.30;8.88;;;3.00;99.90;;;;;;5073923;28;20055;-73
2023/01/03 05:30:18;;;;;;;17.92;8.43;;;3.00;99.90;;;;;;5070359;28;20056;-73
2023/01/03 05:32:44;;;;;;;23.13;9.10;;;2.90;99.90;;;;;;5071771;28;20450;-75
2023/01/03 05:35:10;;;;;;;22.00;9.35;;;2.90;99.90;;;;;;5081434;28;20035;-72
2023/01/03 05:37:35;;;;;;;16.85;8.57;;;2.90;99.90;;;;;;5060188;28;20139;-73
2023/01/03 05:40:01;;;;;;;24.20;9.10;;;2.90;99.90;;;;;;5071469;28;20639;-73
2023/01/03 05:42:27;;;;;;;17.63;8.77;;;2.90;99.90;;;;;;5077242;28;20051;-73
2023/01/03 05:44:53;;;;;;;21.77;10.30;;;2.90;99.90;;;;;;5050112;28;20042;-73
2023/01/03 05:47:19;;;;;;;21.90;10.10;;;2.90;99.90;;;;;;5070990;28;20127;-73
2023/01/03 05:49:45;;;;;;;24.95;10.27;;;2.90;99.90;;;;;;5047179;28;20194;-73
2023/01/03 05:52:10;;;;;;;21.25;10.52;;;2.90;99.90;;;;;;5051959;28;20694;-73
2023/01/03 05:54:37;;;;;;;25.13;11.38;;;2.90;99.90;;;;;;5067403;28;20057;-73
2023/01/03 05:57:02;;;;;;;24.63;11.18;;;2.80;99.90;;;;;;5063584;28;20123;-74
2023/01/03 05:59:28;;;;;;;21.70;10.25;;;2.90;99.90;;;;;;5074242;28;20154;-73
2023/01/03 06:01:54;;;;;;;23.15;11.07;;;3.10;99.90;;;;;;5075005;28;20860;-73
2023/01/03 06:04:19;;;;;;;21.58;10.05;;;2.90;99.90;;;;;;5054533;28;20052;-72
2023/01/03 06:06:45;;;;;;;23.42;10.90;;;2.90;99.90;;;;;;5059809;28;20043;-72
2023/01/03 06:09:11;;;;;;;24.10;12.40;;;2.90;99.90;;;;;;5069965;28;20044;-72
2023/01/03 06:11:39;;;;;;;26.45;10.90;;;2.90;99.90;;;;;;5073557;28;20123;-73
2023/01/03 06:14:05;;;;;;;26.13;10.60;;;2.90;99.90;;;;;;5043572;28;20409;-74
2023/01/03 06:19:16;;;;;;;24.30;11.80;;;3.60;99.90;;;;;;5047215;28;20045;-73
2023/01/03 06:21:42;;;;;;;22.15;12.23;;;2.90;99.90;;;;;;5056954;28;21011;-73
2023/01/03 06:24:08;;;;;;;26.33;12.75;;;2.90;99.90;;;;;;5053985;28;20075;-74
2023/01/03 06:26:34;;;;;;;26.83;13.13;;;2.90;99.90;;;;;;5058349;28;20071;-74
2023/01/03 06:28:59;;;;;;;26.90;12.48;;;2.80;99.90;;;;;;5054172;28;20177;-75
2023/01/03 06:31:25;;;;;;;25.33;12.73;;;2.80;99.90;;;;;;5059357;28;20037;-74
2023/01/03 06:33:54;;;;;;;37.33;14.68;;;3.40;99.90;;;;;;5058251;28;20040;-75
2023/01/03 06:36:21;;;;;;;27.38;13.15;;;3.00;99.90;;;;;;5061402;28;20046;-74
2023/01/03 06:38:47;;;;;;;28.85;14.38;;;3.50;99.90;;;;;;5043046;28;20404;-75
2023/01/03 06:41:14;;;;;;;25.15;13.63;;;2.80;99.90;;;;;;5040503;28;20045;-76
2023/01/03 06:43:40;;;;;;;26.88;15.55;;;2.70;99.90;;;;;;5021628;28;20051;-74
2023/01/03 06:54:25;;;;;;;30.92;16.42;;;2.70;99.90;;;;;;5033610;28;20053;-75
2023/01/03 06:56:54;;;;;;;32.83;16.50;;;2.80;99.90;;;;;;5052283;28;20049;-74
2023/01/03 06:59:21;;;;;;;33.28;18.23;;;2.60;99.90;;;;;;5033863;28;20228;-74
2023/01/03 07:01:48;;;;;;;36.60;18.08;;;2.60;99.90;;;;;;5011642;28;20041;-74
2023/01/03 07:04:14;;;;;;;31.00;17.63;;;2.60;99.90;;;;;;5029229;28;20044;-74
2023/01/03 07:06:40;;;;;;;36.33;18.65;;;2.60;99.90;;;;;;5033835;28;20044;-75
2023/01/03 07:09:07;;;;;;;38.75;18.65;;;2.60;99.90;;;;;;5030376;28;20174;-75
2023/01/03 07:11:33;;;;;;;38.67;19.83;;;2.60;99.90;;;;;;5052817;28;20739;-74
2023/01/03 07:14:01;;;;;;;37.78;17.67;;;2.50;99.90;;;;;;5046848;28;20171;-74
2023/01/03 07:16:40;;;;;;;41.17;18.17;;;2.50;99.90;;;;;;5062352;28;20173;-74
2023/01/03 07:19:09;;;;;;;33.47;16.83;;;2.50;99.90;;;;;;5078368;28;20101;-74
2023/01/03 07:21:35;;;;;;;32.95;17.63;;;2.50;99.90;;;;;;5055042;28;20035;-74
2023/01/03 07:24:03;;;;;;;35.28;17.77;;;2.50;99.90;;;;;;5076046;28;20110;-75
2023/01/03 07:26:32;;;;;;;36.83;17.33;;;2.50;99.90;;;;;;5071871;28;20580;-74
2023/01/03 07:28:59;;;;;;;37.22;18.05;;;2.40;99.90;;;;;;5053065;28;20044;-74
2023/01/03 07:31:25;;;;;;;36.67;18.55;;;3.30;99.90;;;;;;5050097;28;20070;-75
2023/01/03 07:33:57;;;;;;;36.22;18.48;;;2.40;99.90;;;;;;5048273;28;20151;-74
2023/01/03 07:36:23;;;;;;;37.70;18.35;;;2.40;99.90;;;;;;5069089;28;20082;-73
2023/01/03 07:38:49;;;;;;;34.92;18.23;;;2.40;99.90;;;;;;5071173;28;20123;-74
2023/01/03 07:41:16;;;;;;;33.65;18.00;;;2.30;99.90;;;;;;5064878;28;20037;-74
2023/01/03 07:43:45;;;;;;;33.83;18.38;;;2.40;99.90;;;;;;5053940;28;20430;-74
2023/01/03 07:46:12;;;;;;;31.45;16.42;;;2.40;99.90;;;;;;5067320;28;20055;-74
2023/01/03 07:48:38;;;;;;;37.72;18.17;;;2.30;99.90;;;;;;5072198;28;20040;-74
2023/01/03 07:51:06;;;;;;;29.42;16.30;;;2.30;99.90;;;;;;5065235;28;20041;-75
2023/01/03 07:53:33;;;;;;;30.98;16.38;;;2.30;99.90;;;;;;5072190;28;20075;-75
2023/01/03 07:56:07;;;;;;;32.35;16.92;;;2.30;99.90;;;;;;5065244;28;20907;-75
2023/01/03 07:58:34;;;;;;;29.73;16.80;;;2.30;99.90;;;;;;5064453;28;20036;-74
2023/01/03 08:01:07;;;;;;;30.92;15.75;;;2.30;99.90;;;;;;5070235;28;20492;-74
2023/01/03 08:03:33;;;;;;;31.83;15.65;;;2.30;99.90;;;;;;5063580;28;20082;-74
2023/01/03 08:06:00;;;;;;;29.95;16.42;;;2.30;99.90;;;;;;5071572;28;20898;-75
2023/01/03 08:08:27;;;;;;;30.48;15.27;;;2.30;99.90;;;;;;5067797;28;20119;-75
2023/01/03 08:13:36;;;;;;;32.38;15.98;;;2.60;99.90;;;;;;5067595;28;20102;-74
2023/01/03 08:16:03;;;;;;;31.73;16.33;;;2.30;99.90;;;;;;5069249;28;20048;-75
2023/01/03 08:18:29;;;;;;;35.85;17.27;;;2.20;99.90;;;;;;5068571;28;20047;-74
2023/01/03 08:20:57;;;;;;;28.95;15.65;;;2.40;99.90;;;;;;5069890;28;20452;-73
2023/01/03 08:23:24;;;;;;;30.60;16.02;;;2.20;99.90;;;;;;5050620;28;20405;-74
2023/01/03 08:25:50;;;;;;;28.73;14.63;;;2.20;99.90;;;;;;5049312;28;20055;-74
2023/01/03 08:28:16;;;;;;;31.35;15.48;;;2.20;99.90;;;;;;5066659;28;20459;-75
2023/01/03 08:30:46;;;;;;;30.45;16.17;;;2.20;99.90;;;;;;5070471;28;20135;-75
2023/01/03 08:33:14;;;;;;;29.30;16.17;;;2.20;99.90;;;;;;5068587;28;20520;-75
2023/01/03 08:35:45;;;;;;;35.75;16.15;;;2.40;99.90;;;;;;5069697;28;20041;-73
2023/01/03 08:38:15;;;;;;;35.85;16.92;;;2.20;99.90;;;;;;5066819;28;20048;-74
2023/01/03 08:40:43;;;;;;;28.38;15.88;;;2.60;99.90;;;;;;5057932;28;20051;-74
2023/01/03 08:43:11;;;;;;;28.17;15.13;;;2.30;99.90;;;;;;5067793;28;20047;-73
2023/01/03 08:45:37;;;;;;;31.10;14.98;;;2.20;99.90;;;;;;5053435;28;21627;-74
2023/01/03 08:48:05;;;;;;;35.22;16.15;;;2.30;99.90;;;;;;5067230;28;20036;-74
2023/01/03 08:50:30;;;;;;;34.08;16.75;;;2.20;99.90;;;;;;5068727;28;20048;-71
2023/01/03 08:52:57;;;;;;;30.88;15.77;;;2.20;99.90;;;;;;5072260;28;20500;-74
2023/01/03 08:55:23;;;;;;;31.00;16.98;;;2.40;99.90;;;;;;5070683;28;20463;-79
2023/01/03 08:57:49;;;;;;;32.08;16.63;;;2.30;99.90;;;;;;5062026;28;20121;-75
2023/01/03 09:00:15;;;;;;;31.48;16.35;;;2.30;99.90;;;;;;5069320;28;20070;-72
2023/01/03 09:02:41;;;;;;;28.88;17.05;;;2.30;99.90;;;;;;5070620;28;20139;-75
2023/01/03 09:05:07;;;;;;;25.98;15.95;;;2.20;99.90;;;;;;5071021;28;20047;-72
2023/01/03 09:07:33;;;;;;;27.70;15.55;;;2.20;99.90;;;;;;5070765;28;20485;-72
2023/01/03 09:09:59;;;;;;;25.88;15.30;;;2.40;99.90;;;;;;5073100;28;20036;-72
2023/01/03 09:12:25;;;;;;;23.42;14.40;;;2.10;99.90;;;;;;5074662;28;20121;-72
2023/01/03 09:15:00;;;;;;;22.60;14.35;;;2.10;99.90;;;;;;5068722;28;20578;-75
2023/01/03 09:17:27;;;;;;;36.75;14.57;;;2.10;99.90;;;;;;5051890;28;20040;-75
2023/01/03 09:19:53;;;;;;;30.92;15.02;;;2.00;99.90;;;;;;5052450;28;20076;-75
2023/01/03 09:22:18;;;;;;;36.05;15.43;;;2.20;99.90;;;;;;5048867;28;20140;-74
2023/01/03 09:24:45;;;;;;;30.60;13.63;;;1.80;99.90;;;;;;5050355;28;20041;-74
2023/01/03 09:27:10;;;;;;;40.47;14.75;;;1.80;99.90;;;;;;5065448;28;20048;-74
2023/01/03 09:29:36;;;;;;;44.78;14.25;;;1.80;99.90;;;;;;5060304;28;20055;-76
2023/01/03 09:32:02;;;;;;;29.85;14.02;;;1.70;99.90;;;;;;5073030;28;20512;-76
2023/01/03 09:34:28;;;;;;;34.00;14.50;;;1.70;99.90;;;;;;5067369;28;20042;-76
2023/01/03 09:36:53;;;;;;;22.77;13.40;;;1.70;99.90;;;;;;5067410;28;20052;-75
2023/01/03 09:39:25;;;;;;;31.23;14.93;;;1.70;99.90;;;;;;5053598;28;20129;-76
2023/01/03 09:43:11;;;;;;;36.50;15.70;;;1.70;99.90;;;;;;5069516;28;20580;-76
2023/01/03 09:44:38;;;;;;;31.73;15.25;;;1.90;99.90;;;;;;5074466;28;20055;-74
2023/01/03 09:47:04;;;;;;;35.28;15.77;;;1.70;99.90;;;;;;5068562;28;20051;-74
2023/01/03 09:49:30;;;;;;;35.70;16.17;;;2.30;99.90;;;;;;5045022;28;20040;-76
2023/01/03 10:03:42;;;;;;;56.53;18.27;;;1.80;99.90;;;;;;5002892;28;20046;-75
2023/01/03 10:06:10;;;;;;;41.53;17.50;;;1.90;99.90;;;;;;5052353;28;20047;-76
2023/01/03 10:09:00;;;;;;;84.70;19.60;;;1.10;99.90;;;;;;5066666;28;20166;-75
2023/01/03 10:11:32;;;;;;;59.40;18.73;;;1.90;99.90;;;;;;5068583;28;20052;-74
2023/01/03 10:14:06;;;;;;;62.50;19.02;;;2.00;99.90;;;;;;5050367;28;20054;-75
2023/01/03 10:16:53;;;;;;;93.57;21.45;;;2.10;99.90;;;;;;5066804;28;20052;-75
2023/01/03 10:19:44;;;;;;;72.13;21.55;;;2.10;99.90;;;;;;5066586;28;20063;-75
2023/01/03 10:22:13;;;;;;;100.15;21.13;;;2.20;99.90;;;;;;5051221;28;20075;-75
2023/01/03 10:24:49;;;;;;;92.03;22.23;;;2.20;99.90;;;;;;5070112;28;20048;-75
2023/01/03 10:27:24;;;;;;;54.28;20.63;;;2.60;99.90;;;;;;5068551;28;20047;-75
2023/01/03 10:29:57;;;;;;;101.43;23.10;;;2.30;99.90;;;;;;5054178;28;20039;-75
2023/01/03 10:32:41;;;;;;;101.88;23.88;;;2.40;99.90;;;;;;5068098;28;20060;-75
2023/01/03 10:35:32;;;;;;;60.85;22.13;;;2.40;99.90;;;;;;5055098;28;20044;-74
2023/01/03 10:37:59;;;;;;;74.00;23.83;;;2.50;99.90;;;;;;5067448;28;20048;-75
2023/01/03 10:40:37;;;;;;;108.00;27.05;;;2.50;99.90;;;;;;5069879;28;20823;-75
2023/01/03 10:43:40;;;;;;;106.53;28.13;;;2.60;99.90;;;;;;5068459;28;20060;-76
2023/01/03 10:46:12;;;;;;;69.50;26.10;;;2.70;99.90;;;;;;5047483;28;20505;-74
2023/01/03 10:48:46;;;;;;;82.90;27.25;;;2.70;99.90;;;;;;5068049;28;20093;-75
2023/01/03 10:51:38;;;;;;;73.95;27.30;;;2.70;99.90;;;;;;5068736;28;20048;-75
2023/01/03 10:54:24;;;;;;;94.78;29.50;;;2.80;99.90;;;;;;5062960;28;20166;-74
2023/01/03 10:56:50;;;;;;;75.18;26.98;;;2.90;99.90;;;;;;5070114;28;21296;-75
2023/01/03 10:59:31;;;;;;;85.32;30.17;;;2.90;99.90;;;;;;5067635;28;20191;-74
2023/01/03 11:02:15;;;;;;;95.28;30.27;;;3.00;99.90;;;;;;5069783;28;20051;-74
2023/01/03 11:04:41;;;;;;;83.82;31.75;;;3.00;99.90;;;;;;5063377;28;20052;-75
2023/01/03 11:07:07;;;;;;;89.03;30.88;;;3.10;99.90;;;;;;5069523;28;20729;-75
2023/01/03 11:09:54;;;;;;;94.25;31.77;;;3.30;99.90;;;;;;5069390;28;20069;-75
2023/01/03 11:12:32;;;;;;;91.82;30.58;;;3.30;99.90;;;;;;5068200;28;20079;-75
2023/01/03 11:14:59;;;;;;;89.32;30.98;;;3.30;99.90;;;;;;5054649;28;20048;-75
2023/01/03 11:17:27;;;;;;;90.20;32.42;;;3.30;99.90;;;;;;5073554;28;20127;-74
2023/01/03 11:19:57;;;;;;;91.35;31.23;;;3.40;99.90;;;;;;5073215;28;20032;-75
2023/01/03 11:22:44;;;;;;;87.85;31.63;;;3.50;99.90;;;;;;5075089;28;20100;-75
2023/01/03 11:25:25;;;;;;;97.18;33.13;;;3.50;99.90;;;;;;5060023;28;20127;-75
2023/01/03 11:28:05;;;;;;;89.22;31.17;;;3.50;99.90;;;;;;5077192;28;20043;-75
2023/01/03 11:30:40;;;;;;;97.18;33.17;;;3.60;99.90;;;;;;5077569;28;20043;-76
2023/01/03 11:33:32;;;;;;;91.20;32.72;;;3.60;99.90;;;;;;5080737;28;20040;-76
2023/01/03 11:36:21;;;;;;;104.43;35.38;;;3.60;99.90;;;;;;5077435;28;20050;-75
2023/01/03 11:38:59;;;;;;;101.47;34.22;;;3.70;99.90;;;;;;5074344;28;20036;-75
2023/01/03 11:41:32;;;;;;;99.28;36.00;;;3.80;99.90;;;;;;5077182;28;20132;-75
2023/01/03 11:44:17;;;;;;;99.30;32.92;;;3.80;99.90;;;;;;5057426;28;20055;-75
2023/01/03 11:47:14;;;;;;;101.53;35.45;;;3.90;99.90;;;;;;5077117;28;20105;-75
2023/01/03 11:50:12;;;;;;;105.47;36.08;;;4.00;99.90;;;;;;5076353;28;20249;-75
2023/01/03 11:53:07;;;;;;;106.53;36.40;;;4.00;99.90;;;;;;5071804;28;20421;-74
2023/01/03 11:55:54;;;;;;;97.25;35.63;;;4.10;99.90;;;;;;5077875;28;20047;-75
2023/01/03 11:58:26;;;;;;;102.13;35.40;;;4.20;99.90;;;;;;5078888;28;20043;-75
2023/01/03 12:00:54;;;;;;;;;;;4.30;99.90;;;;;;5078356;28;20123;-75
2023/01/03 12:03:29;;;;;;;101.25;35.92;;;4.30;99.90;;;;;;5075310;28;19957;-75
2023/01/03 12:06:20;;;;;;;101.88;38.22;;;4.40;99.90;;;;;;5064219;28;20130;-74
2023/01/03 12:08:50;;;;;;;104.93;37.42;;;4.40;99.90;;;;;;5049659;28;20036;-75
2023/01/03 12:11:45;;;;;;;101.13;37.10;;;4.50;99.90;;;;;;5076465;28;20051;-75
2023/01/03 12:14:41;;;;;;;104.90;37.17;;;4.50;99.90;;;;;;5078315;28;20130;-74
2023/01/03 12:17:17;;;;;;;101.80;37.28;;;4.60;99.90;;;;;;5068542;28;20151;-74
2023/01/03 12:20:00;;;;;;;99.40;35.33;;;4.60;99.90;;;;;;5073552;28;20079;-75
2023/01/03 12:22:31;;;;;;;112.93;40.65;;;4.60;99.90;;;;;;5071348;28;20039;-75
2023/01/03 12:25:08;;;;;;;99.65;37.03;;;4.70;99.90;;;;;;5075399;28;20576;-75
2023/01/03 12:27:41;;;;;;;99.30;38.00;;;4.90;99.90;;;;;;5077266;28;20040;-76
2023/01/03 12:30:33;;;;;;;103.82;36.78;;;4.80;99.90;;;;;;5073903;28;20544;-76
2023/01/03 12:33:06;;;;;;;92.43;36.88;;;4.80;99.90;;;;;;5073133;28;20044;-75
2023/01/03 12:35:49;;;;;;;94.32;36.42;;;4.90;99.90;;;;;;5074564;28;20040;-72
2023/01/03 12:38:20;;;;;;;97.18;37.63;;;4.90;99.90;;;;;;5075915;28;20087;-72
2023/01/03 12:40:58;;;;;;;97.53;36.38;;;5.30;99.90;;;;;;5053538;28;20037;-72
2023/01/03 12:43:41;;;;;;;91.90;35.30;;;5.00;99.90;;;;;;5071359;28;20044;-73
2023/01/03 12:46:13;;;;;;;96.65;35.85;;;5.10;99.90;;;;;;5075964;28;20063;-71
2023/01/03 12:49:05;;;;;;;88.80;33.75;;;5.10;99.90;;;;;;5070758;28;20032;-73
2023/01/03 12:51:31;;;;;;;80.05;32.88;;;5.10;99.90;;;;;;5065957;28;20590;-72
2023/01/03 12:54:32;;;;;;;78.93;32.63;;;5.10;99.90;;;;;;5067354;28;20071;-72
2023/01/03 12:57:16;;;;;;;81.90;31.73;;;5.20;99.90;;;;;;5069229;28;20040;-73
2023/01/03 12:59:55;;;;;;;74.90;31.25;;;5.20;99.90;;;;;;5069968;28;20467;-73
2023/01/03 13:02:39;;;;;;;80.00;30.52;;;5.30;99.90;;;;;;5071437;28;20105;-73
2023/01/03 13:05:24;;;;;;;68.68;28.90;;;5.30;99.90;;;;;;5071236;28;20046;-73
2023/01/03 13:08:14;;;;;;;71.53;30.05;;;5.40;99.90;;;;;;5069479;28;20690;-73
2023/01/03 13:10:45;;;;;;;63.85;27.00;;;5.40;99.90;;;;;;5070064;28;20123;-73
2023/01/03 13:13:17;;;;;;;69.22;28.95;;;5.40;99.90;;;;;;5054691;28;20182;-73
2023/01/03 13:15:45;;;;;;;61.22;25.73;;;5.50;99.90;;;;;;5068392;28;20072;-72
2023/01/03 13:18:19;;;;;;;64.18;25.30;;;5.60;99.90;;;;;;5071500;28;20051;-73
2023/01/03 13:20:46;;;;;;;63.40;25.70;;;5.60;99.90;;;;;;5073823;28;20142;-74
2023/01/03 13:23:33;;;;;;;58.00;24.60;;;5.60;99.90;;;;;;5056572;28;20051;-73
2023/01/03 13:26:04;;;;;;;53.97;23.13;;;5.60;99.90;;;;;;5068387;28;20725;-72
2023/01/03 13:28:37;;;;;;;50.28;22.30;;;5.60;99.90;;;;;;5052900;28;20047;-72
2023/01/03 13:31:18;;;;;;;53.08;24.02;;;5.80;99.90;;;;;;5057201;28;20120;-72
2023/01/03 13:34:10;;;;;;;53.42;24.27;;;6.00;99.90;;;;;;5075054;28;20079;-71
2023/01/03 13:37:04;;;;;;;49.38;23.27;;;5.70;99.90;;;;;;5070394;28;20039;-72
2023/01/03 13:39:42;;;;;;;51.10;22.60;;;5.70;99.90;;;;;;5052107;28;20047;-73
2023/01/03 13:42:27;;;;;;;47.22;21.40;;;5.80;99.90;;;;;;5066494;28;20040;-72
2023/01/03 13:45:18;;;;;;;52.67;22.35;;;5.80;99.90;;;;;;5055775;28;20052;-73
2023/01/03 13:47:47;;;;;;;41.65;20.73;;;5.80;99.90;;;;;;5068281;28;20081;-72
2023/01/03 13:50:33;;;;;;;47.83;21.33;;;5.90;99.90;;;;;;5069330;28;20036;-72
2023/01/03 13:53:02;;;;;;;44.75;19.52;;;5.90;99.90;;;;;;5069383;28;20603;-73
2023/01/03 13:55:46;;;;;;;48.33;22.75;;;5.90;99.90;;;;;;5070831;28;20040;-73
2023/01/03 13:58:26;;;;;;;47.10;21.63;;;5.90;99.90;;;;;;5075859;28;20052;-72
2023/01/03 14:00:58;;;;;;;51.13;21.83;;;5.90;99.90;;;;;;5076820;28;20093;-72
2023/01/03 14:03:30;;;;;;;45.85;21.45;;;6.00;99.90;;;;;;5074479;28;20044;-72